createdAt,value
2022-09-28T00:00:36.843Z,24.77
2022-09-28T00:03:03.249Z,24.77
2022-09-28T00:05:29.526Z,24.77
2022-09-28T00:07:55.891Z,24.76
2022-09-28T00:10:22.228Z,24.76
2022-09-28T00:12:48.577Z,24.75
2022-09-28T00:15:14.913Z,24.75
2022-09-28T00:17:41.257Z,24.73
2022-09-28T00:20:07.626Z,24.65
2022-09-28T00:22:33.976Z,24.74
2022-09-28T00:25:00.314Z,24.66
2022-09-28T00:27:26.678Z,24.66
2022-09-28T00:29:53.011Z,24.74
2022-09-28T00:32:19.426Z,24.58
2022-09-28T00:34:45.773Z,24.63
2022-09-28T00:37:12.104Z,24.64
2022-09-28T00:39:38.474Z,24.64
2022-09-28T00:42:04.820Z,24.71
2022-09-28T00:44:31.164Z,24.71
2022-09-28T00:46:57.544Z,24.70
2022-09-28T00:49:23.887Z,24.63
2022-09-28T00:51:50.227Z,24.62
2022-09-28T00:54:16.590Z,24.62
2022-09-28T00:56:42.929Z,24.69
2022-09-28T00:59:09.358Z,24.68
2022-09-28T01:01:35.654Z,24.68
2022-09-28T01:04:01.992Z,24.68
2022-09-28T01:06:28.344Z,24.68
2022-09-28T01:08:54.692Z,24.69
2022-09-28T01:11:21.037Z,24.69
2022-09-28T01:13:47.437Z,24.67
2022-09-28T01:16:13.859Z,24.55
2022-09-28T01:18:40.123Z,24.66
2022-09-28T01:21:06.471Z,24.66
2022-09-28T01:23:32.803Z,24.66
2022-09-28T01:25:59.140Z,24.65
2022-09-28T01:28:25.492Z,24.66
2022-09-28T01:30:51.843Z,24.66
2022-09-28T01:33:18.184Z,24.65
2022-09-28T01:35:44.557Z,24.64
2022-09-28T01:38:10.926Z,24.65
2022-09-28T01:40:37.326Z,24.65
2022-09-28T01:43:03.600Z,24.60
2022-09-28T01:45:29.950Z,24.63
2022-09-28T01:47:56.282Z,24.65
2022-09-28T01:50:22.635Z,24.56
2022-09-28T01:52:48.970Z,24.62
2022-09-28T01:55:15.308Z,24.62
2022-09-28T01:57:41.646Z,24.63
2022-09-28T02:00:07.990Z,24.62
2022-09-28T02:02:34.407Z,24.62
2022-09-28T02:05:02.688Z,24.62
2022-09-28T02:07:27.025Z,24.62
2022-09-28T02:09:53.366Z,24.62
2022-09-28T02:12:19.731Z,24.60
2022-09-28T02:14:46.075Z,24.50
2022-09-28T02:17:12.422Z,24.50
2022-09-28T02:19:38.760Z,24.61
2022-09-28T02:22:05.101Z,24.59
2022-09-28T02:24:31.488Z,24.56
2022-09-28T02:26:57.822Z,24.53
2022-09-28T02:29:24.162Z,24.55
2022-09-28T02:31:50.541Z,24.56
2022-09-28T02:34:19.255Z,24.55
2022-09-28T02:36:45.593Z,24.54
2022-09-28T02:39:11.926Z,24.53
2022-09-28T02:41:38.275Z,24.53
2022-09-28T02:44:04.615Z,24.52
2022-09-28T02:49:21.341Z,24.51
2022-09-28T02:51:36.197Z,24.50
2022-09-28T02:54:02.527Z,24.52
2022-09-28T02:56:28.879Z,24.52
2022-09-28T02:58:55.219Z,24.50
2022-09-28T03:01:21.598Z,24.49
2022-09-28T03:03:47.897Z,24.49
2022-09-28T03:06:14.243Z,24.47
2022-09-28T03:08:40.611Z,24.48
2022-09-28T03:11:06.952Z,24.47
2022-09-28T03:13:33.296Z,24.46
2022-09-28T03:15:59.689Z,24.38
2022-09-28T03:18:25.978Z,24.38
2022-09-28T03:20:52.328Z,24.43
2022-09-28T03:23:25.845Z,24.42
2022-09-28T03:25:45.048Z,24.41
2022-09-28T03:28:11.344Z,24.42
2022-09-28T03:30:37.696Z,24.42
2022-09-28T03:33:04.039Z,24.42
2022-09-28T03:35:30.392Z,24.43
2022-09-28T03:37:56.817Z,24.42
2022-09-28T03:40:23.155Z,24.31
2022-09-28T03:42:49.416Z,24.31
2022-09-28T03:45:15.760Z,24.38
2022-09-28T03:47:42.093Z,24.38
2022-09-28T03:50:08.433Z,24.38
2022-09-28T03:52:34.773Z,24.38
2022-09-28T03:55:01.108Z,24.37
2022-09-28T03:57:27.450Z,24.39
2022-09-28T03:59:53.799Z,24.35
2022-09-28T04:02:20.170Z,24.37
2022-09-28T04:04:46.470Z,24.35
2022-09-28T04:07:12.809Z,24.35
2022-09-28T04:09:39.146Z,24.35
2022-09-28T04:12:05.493Z,24.37
2022-09-28T04:14:31.834Z,24.33
2022-09-28T04:16:58.173Z,24.33
2022-09-28T04:19:24.517Z,24.35
2022-09-28T04:21:50.859Z,24.35
2022-09-28T04:24:17.202Z,24.37
2022-09-28T04:26:43.541Z,24.35
2022-09-28T04:29:09.891Z,24.32
2022-09-28T04:31:36.274Z,24.34
2022-09-28T04:34:02.572Z,24.25
2022-09-28T04:36:28.917Z,24.25
2022-09-28T04:38:55.262Z,24.33
2022-09-28T04:41:21.597Z,24.33
2022-09-28T04:43:47.947Z,24.34
2022-09-28T04:46:14.311Z,24.30
2022-09-28T04:48:40.622Z,24.35
2022-09-28T04:51:06.953Z,24.35
2022-09-28T04:53:33.296Z,24.39
2022-09-28T04:55:59.628Z,24.39
2022-09-28T04:58:25.982Z,24.39
2022-09-28T05:00:52.357Z,24.41
2022-09-28T05:03:18.663Z,24.41
2022-09-28T05:05:44.996Z,24.52
2022-09-28T05:08:11.336Z,24.52
2022-09-28T05:10:37.795Z,24.39
2022-09-28T05:13:04.146Z,24.51
2022-09-28T05:15:30.472Z,24.48
2022-09-28T05:17:56.842Z,24.57
2022-09-28T05:20:23.187Z,24.57
2022-09-28T05:22:49.535Z,24.62
2022-09-28T05:25:15.872Z,24.49
2022-09-28T05:27:42.217Z,24.65
2022-09-28T05:30:08.545Z,24.65
2022-09-28T05:32:34.920Z,24.82
2022-09-28T05:35:01.264Z,24.80
2022-09-28T05:37:27.629Z,24.61
2022-09-28T05:39:53.983Z,24.64
2022-09-28T05:42:20.353Z,24.58
2022-09-28T05:44:46.696Z,24.68
2022-09-28T05:47:13.032Z,24.70
2022-09-28T05:49:39.364Z,24.70
2022-09-28T05:52:05.697Z,24.71
2022-09-28T05:54:32.048Z,24.82
2022-09-28T05:56:58.371Z,24.82
2022-09-28T05:59:24.712Z,24.74
2022-09-28T06:01:52.000Z,24.74
2022-09-28T06:04:17.670Z,24.83
2022-09-28T06:06:43.839Z,24.78
2022-09-28T06:09:10.177Z,24.78
2022-09-28T06:11:36.528Z,25.02
2022-09-28T06:14:02.877Z,25.05
2022-09-28T06:16:29.262Z,24.99
2022-09-28T06:18:55.547Z,24.97
2022-09-28T06:21:21.879Z,25.02
2022-09-28T06:23:49.418Z,25.07
2022-09-28T06:26:14.619Z,24.96
2022-09-28T06:28:40.985Z,24.97
2022-09-28T06:31:07.404Z,24.99
2022-09-28T06:33:33.650Z,25.05
2022-09-28T06:36:00.006Z,25.05
2022-09-28T06:38:26.411Z,25.01
2022-09-28T06:40:52.788Z,24.93
2022-09-28T06:43:19.097Z,25.17
2022-09-28T06:45:45.466Z,25.29
2022-09-28T06:48:11.798Z,25.51
2022-09-28T06:50:38.132Z,25.46
2022-09-28T06:53:04.543Z,25.19
2022-09-28T06:55:32.077Z,25.21
2022-09-28T06:57:57.258Z,25.21
2022-09-28T07:00:23.591Z,25.27
2022-09-28T07:02:49.980Z,25.05
2022-09-28T07:05:16.316Z,25.05
2022-09-28T07:07:42.667Z,25.30
2022-09-28T07:10:09.014Z,25.27
2022-09-28T07:12:35.363Z,25.27
2022-09-28T07:15:01.717Z,25.30
2022-09-28T07:17:28.129Z,25.21
2022-09-28T07:19:54.431Z,25.26
2022-09-28T07:22:31.775Z,25.19
2022-09-28T07:24:47.151Z,25.16
2022-09-28T07:27:13.505Z,25.21
2022-09-28T07:29:39.851Z,25.15
2022-09-28T07:32:06.194Z,25.22
2022-09-28T07:34:32.529Z,25.17
2022-09-28T07:36:58.926Z,25.19
2022-09-28T07:39:25.270Z,25.04
2022-09-28T07:41:54.390Z,25.08
2022-09-28T07:44:18.022Z,25.18
2022-09-28T07:46:44.316Z,25.10
2022-09-28T07:49:12.440Z,25.16
2022-09-28T07:51:38.269Z,25.19
2022-09-28T07:54:03.399Z,25.19
2022-09-28T07:56:29.753Z,25.19
2022-09-28T07:58:56.092Z,25.28
2022-09-28T08:01:24.462Z,25.44
2022-09-28T08:03:48.796Z,25.44
2022-09-28T08:06:15.140Z,25.46
2022-09-28T08:08:41.513Z,25.46
2022-09-28T08:11:07.869Z,25.58
2022-09-28T08:13:34.213Z,25.65
2022-09-28T08:16:00.556Z,25.69
2022-09-28T08:18:26.893Z,25.70
2022-09-28T08:20:53.250Z,25.70
2022-09-28T08:23:19.579Z,25.72
2022-09-28T08:25:45.919Z,25.76
2022-09-28T08:28:12.266Z,25.73
2022-09-28T08:30:38.712Z,25.62
2022-09-28T08:33:04.982Z,25.54
2022-09-28T08:35:31.326Z,25.90
2022-09-28T08:37:57.671Z,26.82
2022-09-28T08:40:24.071Z,27.13
2022-09-28T08:42:50.393Z,27.42
2022-09-28T08:45:16.741Z,27.42
2022-09-28T08:47:43.071Z,27.70
2022-09-28T08:50:09.515Z,27.69
2022-09-28T08:52:35.790Z,27.58
2022-09-28T08:55:02.150Z,27.59
2022-09-28T08:57:28.482Z,27.54
2022-09-28T08:59:54.826Z,27.64
2022-09-28T09:02:21.249Z,27.68
2022-09-28T09:04:47.507Z,27.62
2022-09-28T09:07:13.842Z,27.68
2022-09-28T09:09:40.193Z,27.63
2022-09-28T09:12:06.530Z,27.61
2022-09-28T09:14:32.882Z,27.65
2022-09-28T09:17:00.549Z,27.57
2022-09-28T09:19:25.611Z,27.40
2022-09-28T09:21:51.958Z,27.79
2022-09-28T09:24:18.361Z,27.84
2022-09-28T09:26:44.661Z,27.66
2022-09-28T09:29:11.043Z,27.93
2022-09-28T09:31:37.381Z,27.86
2022-09-28T09:34:03.741Z,27.73
2022-09-28T09:36:30.082Z,27.85
2022-09-28T09:38:56.444Z,28.15
2022-09-28T09:41:22.793Z,28.26
2022-09-28T09:43:49.133Z,28.13
2022-09-28T09:46:15.497Z,27.93
2022-09-28T09:48:41.823Z,28.06
2022-09-28T09:51:08.157Z,28.08
2022-09-28T09:53:37.705Z,28.07
2022-09-28T09:56:00.833Z,28.19
2022-09-28T09:58:27.181Z,28.12
2022-09-28T10:00:53.560Z,28.13
2022-09-28T10:03:19.862Z,28.23
2022-09-28T10:05:46.242Z,28.22
2022-09-28T10:08:12.608Z,28.25
2022-09-28T10:10:38.971Z,28.18
2022-09-28T10:13:05.319Z,28.18
2022-09-28T10:15:31.652Z,28.17
2022-09-28T10:17:59.020Z,28.15
2022-09-28T10:20:25.712Z,28.08
2022-09-28T10:22:50.728Z,27.94
2022-09-28T10:25:17.111Z,28.07
2022-09-28T10:27:43.492Z,27.94
2022-09-28T10:30:09.835Z,28.06
2022-09-28T10:32:36.192Z,28.09
2022-09-28T10:35:02.535Z,28.13
2022-09-28T10:37:28.956Z,28.09
2022-09-28T10:39:55.300Z,28.05
2022-09-28T10:42:21.726Z,28.06
2022-09-28T10:44:48.037Z,28.11
2022-09-28T10:47:14.381Z,28.12
2022-09-28T10:49:45.875Z,28.13
2022-09-28T10:52:07.070Z,27.96
2022-09-28T10:54:33.420Z,28.19
2022-09-28T10:56:59.782Z,28.21
2022-09-28T10:59:26.116Z,28.19
2022-09-28T11:01:52.505Z,28.30
2022-09-28T11:04:19.012Z,28.26
2022-09-28T11:06:45.367Z,28.37
2022-09-28T11:09:11.600Z,28.38
2022-09-28T11:11:37.941Z,28.40
2022-09-28T11:14:04.295Z,28.44
2022-09-28T11:16:30.703Z,28.43
2022-09-28T11:18:56.989Z,28.44
2022-09-28T11:21:23.331Z,28.43
2022-09-28T11:23:49.709Z,28.34
2022-09-28T11:26:18.605Z,28.38
2022-09-28T11:28:42.455Z,28.38
2022-09-28T11:31:08.895Z,28.45
2022-09-28T11:33:35.203Z,28.38
2022-09-28T11:36:01.550Z,28.43
2022-09-28T11:38:27.884Z,28.41
2022-09-28T11:40:54.385Z,28.46
2022-09-28T11:43:20.597Z,28.46
2022-09-28T11:45:46.971Z,28.41
2022-09-28T11:48:13.307Z,28.39
2022-09-28T11:50:39.667Z,28.31
2022-09-28T11:53:06.018Z,28.33
2022-09-28T11:55:32.372Z,28.29
2022-09-28T11:57:58.761Z,28.29
2022-09-28T12:00:25.120Z,28.29
2022-09-28T12:02:51.655Z,28.21
2022-09-28T12:05:20.847Z,28.21
2022-09-28T12:07:44.211Z,28.23
2022-09-28T12:10:10.558Z,28.28
2022-09-28T12:12:36.915Z,28.25
2022-09-28T12:15:03.286Z,28.27
2022-09-28T12:17:29.661Z,28.25
2022-09-28T12:19:55.985Z,28.23
2022-09-28T12:22:22.342Z,28.29
2022-09-28T12:24:48.719Z,28.28
2022-09-28T12:27:15.061Z,28.24
2022-09-28T12:29:41.410Z,28.31
2022-09-28T12:32:07.757Z,28.29
2022-09-28T12:34:34.105Z,28.31
2022-09-28T12:37:00.446Z,28.35
2022-09-28T12:39:40.953Z,28.40
2022-09-28T12:41:53.139Z,28.31
2022-09-28T12:44:19.497Z,28.29
2022-09-28T12:46:45.980Z,28.27
2022-09-28T12:51:38.590Z,28.33
2022-09-28T12:54:05.072Z,28.30
2022-09-28T12:56:31.499Z,28.31
2022-09-28T12:58:57.857Z,28.30
2022-09-28T13:01:24.250Z,28.32
2022-09-28T13:03:50.554Z,28.33
2022-09-28T13:06:16.894Z,28.35
2022-09-28T13:08:43.239Z,28.35
2022-09-28T13:11:09.586Z,28.34
2022-09-28T13:13:35.943Z,28.36
2022-09-28T13:16:02.332Z,28.34
2022-09-28T13:18:28.644Z,28.32
2022-09-28T13:20:56.417Z,28.36
2022-09-28T13:23:21.336Z,28.31
2022-09-28T13:25:47.674Z,28.35
2022-09-28T13:28:14.046Z,28.33
2022-09-28T13:30:42.220Z,28.32
2022-09-28T13:33:06.756Z,28.30
2022-09-28T13:35:33.095Z,28.40
2022-09-28T13:37:59.432Z,28.50
2022-09-28T13:40:25.802Z,28.59
2022-09-28T13:42:52.211Z,28.62
2022-09-28T13:45:18.554Z,28.59
2022-09-28T13:47:44.893Z,28.49
2022-09-28T13:50:11.377Z,28.47
2022-09-28T13:52:37.621Z,28.54
2022-09-28T13:55:03.956Z,28.61
2022-09-28T13:57:30.311Z,28.60
2022-09-28T13:59:56.655Z,28.61
2022-09-28T14:02:23.034Z,28.53
2022-09-28T14:04:49.348Z,28.52
2022-09-28T14:07:15.780Z,28.51
2022-09-28T14:09:42.077Z,28.54
2022-09-28T14:12:08.435Z,28.57
2022-09-28T14:14:34.776Z,28.56
2022-09-28T14:17:01.120Z,28.56
2022-09-28T14:19:27.459Z,28.56
2022-09-28T14:21:53.821Z,28.54
2022-09-28T14:24:20.143Z,28.52
2022-09-28T14:26:46.498Z,28.51
2022-09-28T14:29:12.871Z,28.46
2022-09-28T14:31:40.422Z,28.49
2022-09-28T14:34:05.562Z,28.47
2022-09-28T14:36:31.944Z,28.39
2022-09-28T14:38:58.281Z,28.38
2022-09-28T14:41:24.630Z,28.34
2022-09-28T14:43:50.966Z,28.30
2022-09-28T14:46:17.460Z,28.20
2022-09-28T14:48:43.711Z,28.12
2022-09-28T14:51:10.053Z,28.10
2022-09-28T14:53:36.407Z,28.06
2022-09-28T14:56:02.768Z,28.06
2022-09-28T14:58:29.099Z,28.02
2022-09-28T15:00:55.447Z,28.03
2022-09-28T15:03:21.794Z,28.14
2022-09-28T15:05:48.207Z,28.18
2022-09-28T15:08:14.550Z,28.27
2022-09-28T15:10:40.889Z,28.40
2022-09-28T15:13:07.225Z,28.34
2022-09-28T15:15:33.631Z,28.37
2022-09-28T15:17:59.943Z,28.34
2022-09-28T15:20:26.290Z,28.35
2022-09-28T15:22:52.640Z,28.30
2022-09-28T15:25:18.979Z,28.30
2022-09-28T15:27:45.310Z,28.28
2022-09-28T15:30:11.654Z,28.27
2022-09-28T15:32:37.988Z,28.26
2022-09-28T15:35:04.336Z,28.25
2022-09-28T15:37:30.672Z,28.23
2022-09-28T15:39:57.031Z,28.21
2022-09-28T15:42:24.379Z,28.22
2022-09-28T15:44:49.717Z,28.25
2022-09-28T15:47:16.057Z,28.23
2022-09-28T15:49:42.402Z,28.20
2022-09-28T15:52:08.737Z,28.21
2022-09-28T15:54:35.085Z,28.18
2022-09-28T15:57:01.464Z,28.20
2022-09-28T15:59:27.987Z,28.20
2022-09-28T16:01:54.374Z,28.21
2022-09-28T16:04:20.705Z,28.23
2022-09-28T16:06:47.037Z,28.21
2022-09-28T16:09:13.380Z,28.20
2022-09-28T16:11:39.718Z,28.20
2022-09-28T16:14:06.114Z,28.20
2022-09-28T16:16:32.416Z,28.18
2022-09-28T16:18:58.753Z,28.23
2022-09-28T16:21:25.139Z,28.24
2022-09-28T16:23:51.474Z,28.22
2022-09-28T16:26:17.819Z,28.17
2022-09-28T16:28:44.152Z,28.17
2022-09-28T16:31:10.563Z,28.15
2022-09-28T16:33:36.858Z,28.19
2022-09-28T16:36:03.227Z,28.17
2022-09-28T16:38:29.558Z,28.14
2022-09-28T16:40:55.956Z,28.11
2022-09-28T16:43:22.272Z,28.13
2022-09-28T16:45:48.628Z,28.12
2022-09-28T16:48:14.965Z,28.17
2022-09-28T16:50:41.311Z,28.10
2022-09-28T16:53:07.657Z,28.11
2022-09-28T16:55:40.412Z,28.13
2022-09-28T16:58:00.389Z,28.09
2022-09-28T17:00:26.740Z,28.12
2022-09-28T17:02:53.098Z,28.11
2022-09-28T17:05:19.413Z,28.05
2022-09-28T17:07:45.754Z,28.07
2022-09-28T17:10:12.108Z,28.05
2022-09-28T17:12:38.479Z,28.07
2022-09-28T17:15:04.817Z,28.06
2022-09-28T17:17:31.193Z,28.06
2022-09-28T17:19:57.549Z,28.02
2022-09-28T17:22:23.874Z,28.04
2022-09-28T17:24:50.218Z,28.08
2022-09-28T17:27:16.583Z,28.02
2022-09-28T17:29:42.924Z,28.05
2022-09-28T17:32:09.255Z,28.02
2022-09-28T17:34:35.619Z,28.02
2022-09-28T17:37:01.956Z,28.01
2022-09-28T17:39:28.304Z,27.99
2022-09-28T17:41:54.636Z,28.00
2022-09-28T17:44:21.153Z,27.94
2022-09-28T17:46:47.545Z,27.95
2022-09-28T17:49:13.687Z,27.94
2022-09-28T17:51:40.015Z,27.97
2022-09-28T17:54:06.362Z,27.94
2022-09-28T17:56:32.817Z,27.99
2022-09-28T17:58:59.061Z,27.93
2022-09-28T18:01:25.496Z,27.95
2022-09-28T18:03:51.748Z,27.95
2022-09-28T18:06:18.082Z,27.89
2022-09-28T18:08:44.463Z,27.90
2022-09-28T18:11:10.802Z,27.88
2022-09-28T18:13:37.211Z,27.86
2022-09-28T18:16:04.897Z,27.85
2022-09-28T18:18:29.889Z,27.87
2022-09-28T18:20:56.228Z,27.85
2022-09-28T18:23:22.573Z,27.89
2022-09-28T18:25:48.913Z,27.86
2022-09-28T18:28:15.254Z,27.89
2022-09-28T18:30:41.637Z,27.85
2022-09-28T18:33:07.933Z,27.85
2022-09-28T18:35:34.264Z,27.82
2022-09-28T18:38:00.656Z,27.82
2022-09-28T18:40:27.039Z,27.83
2022-09-28T18:42:53.344Z,27.81
2022-09-28T18:45:19.684Z,27.80
2022-09-28T18:47:46.027Z,27.80
2022-09-28T18:50:12.370Z,27.80
2022-09-28T18:52:38.712Z,27.80
2022-09-28T18:55:05.046Z,27.81
2022-09-28T18:57:31.393Z,27.79
2022-09-28T18:59:57.728Z,27.82
2022-09-28T19:02:24.148Z,27.79
2022-09-28T19:04:50.400Z,27.80
2022-09-28T19:07:16.836Z,27.78
2022-09-28T19:09:43.166Z,27.78
2022-09-28T19:12:09.509Z,27.79
2022-09-28T19:14:35.853Z,27.81
2022-09-28T19:17:02.228Z,27.78
2022-09-28T19:19:28.569Z,27.79
2022-09-28T19:21:54.945Z,27.78
2022-09-28T19:24:21.249Z,27.78
2022-09-28T19:26:47.587Z,27.77
2022-09-28T19:29:13.934Z,27.78
2022-09-28T19:31:40.272Z,27.72
2022-09-28T19:34:08.236Z,27.76
2022-09-28T19:36:32.949Z,27.76
2022-09-28T19:38:59.279Z,27.76
2022-09-28T19:41:25.674Z,27.77
2022-09-28T19:43:52.016Z,27.75
2022-09-28T19:46:18.413Z,27.76
2022-09-28T19:48:44.701Z,27.79
2022-09-28T19:51:11.048Z,27.75
2022-09-28T19:53:37.384Z,27.76
2022-09-28T19:56:03.728Z,27.77
2022-09-28T19:58:30.072Z,27.75
2022-09-28T20:00:56.421Z,27.70
2022-09-28T20:03:22.754Z,27.73
2022-09-28T20:05:49.101Z,27.72
2022-09-28T20:08:15.445Z,27.71
2022-09-28T20:10:41.783Z,27.67
2022-09-28T20:13:08.117Z,27.68
2022-09-28T20:15:34.493Z,27.72
2022-09-28T20:18:00.846Z,27.65
2022-09-28T20:20:27.187Z,27.59
2022-09-28T20:22:53.520Z,27.53
2022-09-28T20:25:19.856Z,27.56
2022-09-28T20:27:46.192Z,27.54
2022-09-28T20:30:12.530Z,27.59
2022-09-28T20:32:38.868Z,27.56
2022-09-28T20:35:05.205Z,27.57
2022-09-28T20:37:31.551Z,27.55
2022-09-28T20:39:57.888Z,27.58
2022-09-28T20:42:24.319Z,27.56
2022-09-28T20:44:50.694Z,27.57
2022-09-28T20:47:17.027Z,27.57
2022-09-28T20:49:43.364Z,27.57
2022-09-28T20:52:09.701Z,27.57
2022-09-28T20:54:36.047Z,27.55
2022-09-28T20:57:02.377Z,27.57
2022-09-28T20:59:29.685Z,27.57
2022-09-28T21:01:55.158Z,27.58
2022-09-28T21:04:21.526Z,27.60
2022-09-28T21:06:47.788Z,27.62
2022-09-28T21:09:14.132Z,27.42
2022-09-28T21:11:40.484Z,27.62
2022-09-28T21:14:06.822Z,27.63
2022-09-28T21:16:33.154Z,27.64
2022-09-28T21:18:59.506Z,27.63
2022-09-28T21:21:25.833Z,27.63
2022-09-28T21:23:52.169Z,27.64
2022-09-28T21:26:18.507Z,27.63
2022-09-28T21:28:44.856Z,27.66
2022-09-28T21:31:11.243Z,27.64
2022-09-28T21:33:37.541Z,27.59
2022-09-28T21:36:03.879Z,27.62
2022-09-28T21:38:30.218Z,27.63
2022-09-28T21:40:56.610Z,27.61
2022-09-28T21:43:22.895Z,27.62
2022-09-28T21:45:49.235Z,27.61
2022-09-28T21:48:15.583Z,27.62
2022-09-28T21:50:41.936Z,27.61
2022-09-28T21:53:08.277Z,27.62
2022-09-28T21:55:34.630Z,27.62
2022-09-28T21:58:00.974Z,27.60
2022-09-28T22:00:27.324Z,27.60
2022-09-28T22:02:53.703Z,27.63
2022-09-28T22:05:19.988Z,27.60
2022-09-28T22:07:46.334Z,27.60
2022-09-28T22:10:12.677Z,27.60
2022-09-28T22:12:39.015Z,27.62
2022-09-28T22:15:05.344Z,27.59
2022-09-28T22:17:31.727Z,27.56
2022-09-28T22:19:59.014Z,27.57
2022-09-28T22:22:28.395Z,27.58
2022-09-28T22:24:50.740Z,27.58
2022-09-28T22:27:17.082Z,27.57
2022-09-28T22:29:43.418Z,27.58
2022-09-28T22:32:09.766Z,27.61
2022-09-28T22:34:36.096Z,27.58
2022-09-28T22:37:02.451Z,27.59
2022-09-28T22:39:28.794Z,27.59
2022-09-28T22:41:55.136Z,27.56
2022-09-28T22:44:21.475Z,27.56
2022-09-28T22:46:47.888Z,27.58
2022-09-28T22:49:14.160Z,27.57
2022-09-28T22:51:40.495Z,27.57
2022-09-28T22:54:06.856Z,27.56
2022-09-28T22:56:33.200Z,27.59
2022-09-28T22:58:59.539Z,27.59
2022-09-28T23:01:25.970Z,27.58
2022-09-28T23:03:52.240Z,27.57
2022-09-28T23:06:18.583Z,27.57
2022-09-28T23:08:44.925Z,27.57
2022-09-28T23:11:11.265Z,27.57
2022-09-28T23:13:37.596Z,27.58
2022-09-28T23:16:03.980Z,27.59
2022-09-28T23:18:30.274Z,27.55
2022-09-28T23:20:56.615Z,27.54
2022-09-28T23:23:22.952Z,27.56
2022-09-28T23:25:49.295Z,27.54
2022-09-28T23:28:15.633Z,27.57
2022-09-28T23:30:41.979Z,27.58
2022-09-28T23:33:08.324Z,27.55
2022-09-28T23:35:34.663Z,27.53
2022-09-28T23:38:00.992Z,27.55
2022-09-28T23:40:27.401Z,27.57
2022-09-28T23:42:53.672Z,27.58
2022-09-28T23:45:20.037Z,27.52
2022-09-28T23:47:46.366Z,27.55
2022-09-28T23:50:12.706Z,27.51
2022-09-28T23:52:39.044Z,27.52
2022-09-28T23:55:05.381Z,27.50
2022-09-28T23:57:31.723Z,27.53
2022-09-28T23:59:58.064Z,27.46
